createdAt,value
2023-02-06T00:04:47.373Z,4.90
2023-02-06T00:09:50.673Z,5.03
2023-02-06T00:14:55.323Z,4.47
2023-02-06T00:19:58.631Z,4.17
2023-02-06T00:25:01.948Z,5.28
2023-02-06T00:30:07.712Z,5.28
2023-02-06T00:35:11.886Z,4.60
2023-02-06T00:40:17.439Z,5.68
2023-02-06T00:45:22.106Z,5.32
2023-02-06T00:50:25.486Z,6.17
2023-02-06T00:55:28.738Z,5.68
2023-02-06T01:00:33.490Z,6.03
2023-02-06T01:05:37.288Z,6.28
2023-02-06T01:10:42.546Z,6.28
2023-02-06T01:15:48.963Z,5.68
2023-02-06T01:20:53.469Z,5.25
2023-02-06T01:25:57.213Z,5.95
2023-02-06T01:31:02.152Z,6.10
2023-02-06T01:36:06.039Z,5.35
2023-02-06T01:41:11.521Z,5.43
2023-02-06T01:46:16.208Z,6.40
2023-02-06T01:51:24.244Z,6.47
2023-02-06T01:56:31.658Z,7.47
2023-02-06T02:01:36.854Z,7.22
2023-02-06T02:06:41.993Z,7.80
2023-02-06T02:11:45.714Z,6.55
2023-02-06T02:17:04.603Z,6.28
2023-02-06T02:22:40.474Z,7.78
2023-02-06T02:28:05.592Z,6.03
2023-02-06T02:33:40.925Z,6.90
2023-02-06T02:38:56.608Z,5.80
2023-02-06T02:49:10.776Z,5.25
2023-02-06T02:54:15.996Z,6.30
2023-02-06T02:59:24.271Z,7.90
2023-02-06T03:04:36.509Z,6.53
2023-02-06T03:09:51.265Z,7.25
2023-02-06T03:14:59.308Z,6.50
2023-02-06T03:20:05.923Z,7.22
2023-02-06T03:25:14.214Z,7.28
2023-02-06T03:30:20.330Z,6.38
2023-02-06T03:35:30.791Z,6.75
2023-02-06T03:40:36.366Z,7.30
2023-02-06T03:45:43.241Z,7.00
2023-02-06T03:50:50.714Z,7.82
2023-02-06T03:56:00.107Z,7.35
2023-02-06T04:01:05.675Z,7.30
2023-02-06T04:06:09.565Z,7.53
2023-02-06T04:11:14.277Z,7.78
2023-02-06T04:16:18.126Z,8.37
2023-02-06T04:21:22.203Z,8.23
2023-02-06T04:26:26.971Z,8.23
2023-02-06T04:31:30.633Z,8.00
2023-02-06T04:36:34.041Z,8.18
2023-02-06T04:41:38.740Z,7.78
2023-02-06T04:46:43.309Z,8.50
2023-02-06T04:51:46.588Z,8.15
2023-02-06T04:56:51.340Z,8.77
2023-02-06T05:01:54.639Z,8.57
2023-02-06T05:06:58.319Z,8.68
2023-02-06T05:12:03.102Z,9.43
2023-02-06T05:17:06.749Z,9.07
2023-02-06T05:22:10.012Z,9.27
2023-02-06T05:27:14.788Z,9.27
2023-02-06T05:32:19.421Z,9.17
2023-02-06T05:37:23.021Z,10.23
2023-02-06T05:42:27.669Z,10.13
2023-02-06T05:47:31.063Z,9.90
2023-02-06T05:52:35.066Z,9.95
2023-02-06T05:57:39.921Z,10.05
2023-02-06T06:02:43.641Z,9.83
2023-02-06T06:07:46.970Z,10.88
2023-02-06T06:12:51.744Z,11.13
2023-02-06T06:17:55.044Z,11.57
2023-02-06T06:22:58.373Z,11.48
2023-02-06T06:28:03.277Z,10.40
2023-02-06T06:33:07.010Z,11.40
2023-02-06T06:38:10.670Z,11.20
2023-02-06T06:43:15.662Z,10.13
2023-02-06T06:48:19.024Z,10.60
2023-02-06T06:53:22.457Z,12.60
2023-02-06T06:58:27.139Z,11.05
2023-02-06T07:03:30.435Z,11.97
2023-02-06T07:08:34.042Z,11.70
2023-02-06T07:13:39.039Z,13.23
2023-02-06T07:18:43.158Z,13.15
2023-02-06T07:23:46.579Z,14.70
2023-02-06T07:28:52.793Z,13.02
2023-02-06T07:33:56.177Z,13.82
2023-02-06T07:38:59.405Z,13.43
2023-02-06T07:44:04.067Z,15.38
2023-02-06T07:49:07.792Z,14.80
2023-02-06T07:54:12.033Z,14.68
2023-02-06T07:59:17.746Z,13.00
2023-02-06T08:04:21.479Z,13.90
2023-02-06T08:09:25.551Z,12.82
2023-02-06T08:14:31.674Z,13.25
2023-02-06T08:19:35.423Z,13.60
2023-02-06T08:24:38.729Z,14.25
2023-02-06T08:29:43.994Z,14.50
2023-02-06T08:34:47.328Z,14.18
2023-02-06T08:39:51.026Z,15.25
2023-02-06T08:44:56.064Z,16.33
2023-02-06T08:50:01.490Z,15.45
2023-02-06T08:55:06.866Z,14.73
2023-02-06T09:00:13.787Z,16.88
2023-02-06T09:05:17.611Z,14.10
2023-02-06T09:10:27.536Z,14.77
2023-02-06T09:15:33.200Z,15.35
2023-02-06T09:20:36.871Z,15.73
2023-02-06T09:25:40.191Z,16.13
2023-02-06T09:30:45.447Z,17.88
2023-02-06T09:35:49.007Z,16.65
2023-02-06T09:40:55.093Z,16.00
2023-02-06T09:46:03.441Z,15.98
2023-02-06T09:51:24.032Z,14.52
2023-02-06T09:56:35.833Z,12.75
2023-02-06T10:01:47.118Z,13.93
2023-02-06T10:06:57.104Z,12.90
2023-02-06T10:12:04.932Z,13.55
2023-02-06T10:17:18.490Z,11.05
2023-02-06T10:22:29.470Z,11.48
2023-02-06T10:27:35.006Z,11.75
2023-02-06T10:38:13.562Z,10.18
2023-02-06T10:43:27.848Z,11.75
2023-02-06T10:48:39.869Z,13.43
2023-02-06T10:53:50.666Z,11.98
2023-02-06T10:58:58.210Z,11.85
2023-02-06T11:04:07.620Z,12.23
2023-02-06T11:09:11.982Z,10.85
2023-02-06T11:14:19.488Z,11.60
2023-02-06T11:19:30.515Z,10.80
2023-02-06T11:24:34.383Z,10.07
2023-02-06T11:29:45.484Z,10.73
2023-02-06T11:34:58.395Z,11.38
2023-02-06T11:40:32.308Z,9.55
2023-02-06T11:45:36.588Z,10.90
2023-02-06T11:50:42.025Z,10.48
2023-02-06T11:55:46.768Z,10.13
2023-02-06T12:01:00.204Z,8.77
2023-02-06T12:06:12.700Z,10.13
2023-02-06T12:11:23.456Z,9.55
2023-02-06T12:16:28.737Z,9.63
2023-02-06T12:21:43.476Z,9.50
2023-02-06T12:26:49.199Z,9.80
2023-02-06T12:32:00.951Z,8.82
2023-02-06T12:37:15.481Z,8.95
2023-02-06T12:42:33.467Z,8.57
2023-02-06T12:47:43.517Z,8.52
2023-02-06T12:52:53.080Z,6.72
2023-02-06T12:57:57.779Z,7.88
2023-02-06T13:03:28.644Z,7.97
2023-02-06T13:08:48.077Z,7.13
2023-02-06T13:14:01.874Z,6.97
2023-02-06T13:19:05.763Z,6.35
2023-02-06T13:24:21.793Z,6.25
2023-02-06T13:29:26.926Z,6.28
2023-02-06T13:34:30.641Z,6.30
2023-02-06T13:39:35.715Z,7.45
2023-02-06T13:44:40.732Z,7.20
2023-02-06T13:50:26.219Z,6.67
2023-02-06T13:55:44.491Z,5.70
2023-02-06T14:00:50.814Z,6.47
2023-02-06T14:06:01.102Z,6.10
2023-02-06T14:11:33.620Z,6.55
2023-02-06T14:16:45.988Z,6.85
2023-02-06T14:21:55.439Z,5.60
2023-02-06T14:27:19.412Z,6.35
2023-02-06T14:32:39.007Z,6.57
2023-02-06T14:38:07.464Z,6.65
2023-02-06T14:43:19.456Z,7.57
2023-02-06T14:48:26.884Z,8.07
2023-02-06T14:53:33.679Z,7.53
2023-02-06T14:58:38.607Z,8.00
2023-02-06T15:03:42.311Z,8.98
2023-02-06T15:08:49.700Z,9.65
2023-02-06T15:13:56.589Z,9.90
2023-02-06T15:19:17.227Z,10.10
2023-02-06T15:24:43.454Z,9.63
2023-02-06T15:29:51.083Z,11.80
2023-02-06T15:34:54.507Z,12.48
2023-02-06T15:40:06.183Z,12.90
2023-02-06T15:45:21.110Z,11.80
2023-02-06T15:50:28.221Z,13.50
2023-02-06T15:55:35.824Z,13.05
2023-02-06T16:00:40.876Z,14.48
2023-02-06T16:05:45.062Z,14.52
2023-02-06T16:10:52.329Z,15.32
2023-02-06T16:16:20.438Z,14.77
2023-02-06T16:21:30.042Z,14.70
2023-02-06T16:26:40.628Z,14.88
2023-02-06T16:31:46.684Z,14.98
2023-02-06T16:36:50.084Z,14.75
2023-02-06T16:41:54.732Z,14.38
2023-02-06T16:46:59.871Z,13.80
2023-02-06T16:52:03.619Z,15.18
2023-02-06T16:57:12.760Z,15.25
2023-02-06T17:02:17.786Z,13.07
2023-02-06T17:07:24.334Z,14.02
2023-02-06T17:12:27.688Z,13.27
2023-02-06T17:17:32.782Z,13.23
2023-02-06T17:22:36.411Z,11.73
2023-02-06T17:27:39.773Z,12.95
2023-02-06T17:32:45.032Z,12.15
2023-02-06T17:37:49.232Z,11.85
2023-02-06T17:42:52.699Z,10.20
2023-02-06T17:47:57.730Z,12.13
2023-02-06T17:53:01.535Z,9.77
2023-02-06T17:58:05.637Z,10.05
2023-02-06T18:03:11.389Z,11.38
2023-02-06T18:08:15.585Z,10.13
2023-02-06T18:13:20.546Z,10.00
2023-02-06T18:18:26.464Z,12.00
2023-02-06T18:23:30.577Z,10.40
2023-02-06T18:28:35.079Z,10.73
2023-02-06T18:33:39.754Z,10.87
2023-02-06T18:38:43.022Z,11.70
2023-02-06T18:43:46.762Z,10.93
2023-02-06T18:48:51.549Z,11.27
2023-02-06T18:53:54.840Z,10.17
2023-02-06T18:58:58.151Z,9.25
2023-02-06T19:04:02.804Z,10.23
2023-02-06T19:09:07.674Z,9.80
2023-02-06T19:14:15.186Z,10.68
2023-02-06T19:19:20.618Z,10.88
2023-02-06T19:29:35.526Z,10.20
2023-02-06T19:34:42.097Z,10.82
2023-02-06T19:39:45.785Z,12.15
2023-02-06T19:44:54.105Z,10.73
2023-02-06T19:49:58.767Z,11.98
2023-02-06T19:55:02.080Z,11.07
2023-02-06T20:00:07.949Z,12.20
2023-02-06T20:05:12.954Z,8.73
2023-02-06T20:10:16.323Z,12.13
2023-02-06T20:15:20.261Z,12.88
2023-02-06T20:20:25.168Z,12.15
2023-02-06T20:25:29.088Z,10.55
2023-02-06T20:30:33.090Z,11.48
2023-02-06T20:35:39.721Z,11.00
2023-02-06T20:40:51.457Z,11.98
2023-02-06T20:45:54.738Z,11.75
2023-02-06T20:51:00.701Z,11.52
2023-02-06T20:56:04.422Z,11.63
2023-02-06T21:01:14.433Z,11.13
2023-02-06T21:06:20.338Z,11.15
2023-02-06T21:11:23.780Z,12.50
2023-02-06T21:16:27.697Z,12.68
2023-02-06T21:21:32.451Z,11.68
2023-02-06T21:26:39.396Z,12.20
2023-02-06T21:31:43.131Z,11.48
2023-02-06T21:36:48.744Z,10.93
2023-02-06T21:41:53.908Z,11.30
2023-02-06T21:46:57.208Z,11.45
2023-02-06T21:52:02.247Z,10.48
2023-02-06T21:57:06.273Z,11.60
2023-02-06T22:02:12.068Z,12.73
2023-02-06T22:07:17.512Z,11.60
2023-02-06T22:12:21.436Z,11.32
2023-02-06T22:17:24.937Z,10.20
2023-02-06T22:22:29.684Z,11.88
2023-02-06T22:27:33.722Z,12.63
2023-02-06T22:32:38.912Z,12.18
2023-02-06T22:37:44.649Z,13.27
2023-02-06T22:42:48.060Z,12.98
2023-02-06T22:47:51.750Z,12.55
2023-02-06T22:53:14.011Z,12.32
2023-02-06T22:58:17.297Z,11.50
2023-02-06T23:03:20.960Z,11.98
2023-02-06T23:08:25.619Z,14.02
2023-02-06T23:13:29.715Z,14.20
2023-02-06T23:18:33.565Z,13.95
2023-02-06T23:23:39.476Z,11.75
2023-02-06T23:28:43.079Z,12.73
2023-02-06T23:33:46.503Z,13.60
2023-02-06T23:38:52.292Z,12.88
2023-02-06T23:43:59.885Z,10.15
2023-02-06T23:49:03.318Z,12.25
2023-02-06T23:54:09.379Z,12.27
2023-02-06T23:59:13.959Z,13.77
